Time;durP1;ratioP1;P1;durP2;ratioP2;P2;SDS_P1;SDS_P2;PMS_P1;PMS_P2;Temp;Humidity;BMP_temperature;BMP_pressure;BME280_temperature;BME280_humidity;BME280_pressure;Samples;Min_cycle;Max_cycle;Signal;HPM_P1;HPM_P2
2023/05/11 01:03:27;;;;;;;0.00;0.00;;;;;;;13.18;100.00;99701.25;4480262;23;20483;-88
2023/05/11 01:06:05;;;;;;;0.70;0.70;;;;;;;13.23;100.00;99711.75;4851941;29;20136;-88
2023/05/11 01:08:41;;;;;;;0.32;0.32;;;;;;;13.22;100.00;99710.22;4857448;29;20566;-90
2023/05/11 01:11:07;;;;;;;0.73;0.52;;;;;;;13.22;100.00;99705.44;4886051;29;20096;-89
2023/05/11 01:13:38;;;;;;;1.23;0.32;;;;;;;13.21;100.00;99697.53;4862626;29;20048;-88
2023/05/11 01:16:11;;;;;;;0.08;0.08;;;;;;;13.10;100.00;99692.44;4878375;29;20421;-88
2023/05/11 01:18:41;;;;;;;0.85;0.65;;;;;;;13.02;100.00;99675.19;4843689;29;20123;-89
2023/05/11 01:21:14;;;;;;;0.15;0.15;;;;;;;13.00;100.00;99672.09;4849144;29;20040;-91
2023/05/11 01:23:43;;;;;;;0.10;0.10;;;;;;;13.16;100.00;99700.91;4863902;29;20072;-92
2023/05/11 01:26:39;;;;;;;0.63;0.63;;;;;;;13.12;100.00;99700.28;4862958;29;20127;-92
2023/05/11 01:29:17;;;;;;;0.40;0.40;;;;;;;13.12;100.00;99694.72;4883275;29;20060;-92
2023/05/11 01:31:46;;;;;;;0.17;0.17;;;;;;;13.01;100.00;99684.81;4866789;29;20052;-91
2023/05/11 01:34:16;;;;;;;0.55;0.55;;;;;;;12.99;100.00;99687.25;4897115;29;20033;-92
2023/05/11 01:36:48;;;;;;;0.98;0.90;;;;;;;12.98;100.00;99694.06;4878584;29;20136;-88
2023/05/11 01:39:16;;;;;;;0.20;0.17;;;;;;;12.94;100.00;99679.50;4871528;29;20463;-89
2023/05/11 01:41:44;;;;;;;0.47;0.25;;;;;;;12.98;100.00;99685.69;4866716;29;20068;-90
2023/05/11 01:44:11;;;;;;;0.63;0.63;;;;;;;12.77;100.00;99658.78;4870058;29;20071;-90
2023/05/11 01:46:38;;;;;;;0.43;0.43;;;;;;;12.97;100.00;99689.75;4867467;29;20788;-90
2023/05/11 01:49:06;;;;;;;0.10;0.10;;;;;;;12.93;100.00;99680.75;4854351;29;20052;-90
2023/05/11 01:51:36;;;;;;;0.00;0.00;;;;;;;12.78;100.00;99660.31;4849308;29;20545;-89
2023/05/11 01:54:05;;;;;;;1.23;0.85;;;;;;;12.86;100.00;99678.25;4882710;29;20049;-89
2023/05/11 01:56:32;;;;;;;1.15;0.85;;;;;;;12.84;100.00;99677.19;4878921;29;20189;-90
2023/05/11 01:58:58;;;;;;;0.98;0.85;;;;;;;12.80;100.00;99674.53;4859654;29;20491;-89
2023/05/11 02:01:24;;;;;;;0.45;0.45;;;;;;;12.69;100.00;99663.09;4857127;29;20044;-90
2023/05/11 02:03:51;;;;;;;0.60;0.45;;;;;;;12.76;100.00;99670.34;4844876;29;20502;-89
2023/05/11 02:06:18;;;;;;;0.10;0.10;;;;;;;12.76;100.00;99673.16;4861322;29;20086;-89
2023/05/11 02:08:45;;;;;;;0.30;0.30;;;;;;;12.66;100.00;99654.91;4855377;29;20100;-89
2023/05/11 02:11:12;;;;;;;1.30;1.20;;;;;;;12.63;100.00;99645.44;4872720;29;20116;-90
2023/05/11 02:13:41;;;;;;;0.93;0.68;;;;;;;12.71;100.00;99660.59;4844401;29;20025;-89
2023/05/11 02:16:08;;;;;;;0.88;0.52;;;;;;;12.77;100.00;99672.69;4864329;29;20083;-89
2023/05/11 02:18:34;;;;;;;0.68;0.68;;;;;;;12.80;100.00;99679.34;4847058;29;20535;-90
2023/05/11 02:21:00;;;;;;;0.38;0.38;;;;;;;12.58;100.00;99654.38;4845452;29;20045;-89
2023/05/11 02:23:26;;;;;;;0.95;0.95;;;;;;;12.57;100.00;99658.41;4851660;29;20492;-90
2023/05/11 02:25:53;;;;;;;0.00;0.00;;;;;;;12.44;100.00;99641.06;4859042;29;20045;-89
2023/05/11 02:28:19;;;;;;;4.20;2.22;;;;;;;12.55;100.00;99652.53;4859611;29;20050;-89
2023/05/11 02:30:47;;;;;;;1.25;0.93;;;;;;;12.39;100.00;99650.00;4844614;29;20570;-90
2023/05/11 02:33:32;;;;;;;0.20;0.20;;;;;;;12.56;100.00;99663.22;4861602;29;20470;-89
2023/05/11 02:35:58;;;;;;;0.20;0.20;;;;;;;12.60;100.00;99671.41;4869913;29;20063;-89
2023/05/11 02:38:32;;;;;;;0.35;0.30;;;;;;;12.67;100.00;99682.25;4842179;29;20128;-89
2023/05/11 02:41:03;;;;;;;0.00;0.00;;;;;;;12.63;100.00;99687.94;4875094;29;20079;-90
2023/05/11 02:43:32;;;;;;;0.08;0.08;;;;;;;12.58;100.00;99668.28;4867321;29;20052;-89
2023/05/11 02:46:03;;;;;;;0.00;0.00;;;;;;;12.45;100.00;99664.88;4859099;29;20041;-90
2023/05/11 02:48:41;;;;;;;3.17;0.28;;;;;;;12.54;100.00;99684.34;4859615;29;20522;-89
2023/05/11 02:51:09;;;;;;;1.05;0.68;;;;;;;12.42;100.00;99658.19;4858341;29;20082;-90
2023/05/11 02:53:41;;;;;;;0.00;0.00;;;;;;;12.41;100.00;99653.91;4845279;29;20069;-90
2023/05/11 02:56:07;;;;;;;0.15;0.15;;;;;;;12.53;100.00;99677.28;4862015;29;20418;-88
2023/05/11 02:58:34;;;;;;;0.55;0.47;;;;;;;12.60;100.00;99682.53;4860063;29;20048;-90
2023/05/11 03:01:20;;;;;;;1.95;0.50;;;;;;;12.56;100.00;99676.34;4854800;29;20459;-89
2023/05/11 03:03:46;;;;;;;0.65;0.43;;;;;;;12.46;100.00;99671.97;4855972;29;20140;-90
2023/05/11 03:06:13;;;;;;;0.43;0.30;;;;;;;12.51;100.00;99685.28;4866044;29;20100;-90
2023/05/11 03:08:40;;;;;;;1.02;0.65;;;;;;;12.38;100.00;99665.91;4844109;29;20132;-89
2023/05/11 03:11:06;;;;;;;0.28;0.28;;;;;;;12.31;100.00;99662.66;4866645;29;20591;-89
2023/05/11 03:13:33;;;;;;;0.40;0.40;;;;;;;12.34;100.00;99665.28;4847316;29;20072;-93
2023/05/11 03:16:01;;;;;;;0.50;0.50;;;;;;;12.33;100.00;99651.84;4842355;29;20049;-93
2023/05/11 03:18:30;;;;;;;0.03;0.03;;;;;;;12.33;100.00;99657.41;4862554;29;20055;-92
2023/05/11 03:20:57;;;;;;;1.08;0.38;;;;;;;12.40;100.00;99673.81;4850957;29;20033;-92
2023/05/11 03:23:22;;;;;;;2.95;0.40;;;;;;;12.17;100.00;99632.63;4852452;29;20112;-94
2023/05/11 03:25:48;;;;;;;0.00;0.00;;;;;;;12.28;100.00;99649.66;4848029;29;20495;-93
2023/05/11 03:28:14;;;;;;;0.77;0.77;;;;;;;12.31;100.00;99643.19;4829535;29;20610;-93
2023/05/11 03:30:47;;;;;;;0.57;0.57;;;;;;;12.32;100.00;99656.63;4851432;29;20045;-93
2023/05/11 03:33:13;;;;;;;0.20;0.20;;;;;;;12.25;100.00;99645.03;4846569;29;20044;-94
2023/05/11 03:35:40;;;;;;;0.10;0.10;;;;;;;12.30;100.00;99647.97;4860133;29;20045;-93
2023/05/11 03:38:06;;;;;;;0.40;0.40;;;;;;;12.36;100.00;99656.50;4868359;29;20122;-93
2023/05/11 03:40:33;;;;;;;0.28;0.28;;;;;;;12.40;100.00;99657.13;4859340;29;20048;-92
2023/05/11 03:43:01;;;;;;;0.15;0.15;;;;;;;12.32;100.00;99644.75;4845856;29;20068;-93
2023/05/11 03:45:27;;;;;;;0.10;0.10;;;;;;;12.44;100.00;99654.97;4833842;29;20041;-94
2023/05/11 03:47:54;;;;;;;2.20;0.90;;;;;;;12.42;100.00;99651.88;4847436;29;20040;-93
2023/05/11 03:50:20;;;;;;;0.52;0.52;;;;;;;12.37;100.00;99644.91;4861166;29;20081;-94
2023/05/11 03:52:46;;;;;;;2.20;0.93;;;;;;;12.47;100.00;99652.03;4863079;29;20085;-92
2023/05/11 03:55:12;;;;;;;0.03;0.03;;;;;;;12.47;100.00;99646.47;4857388;29;20045;-94
2023/05/11 03:57:38;;;;;;;0.75;0.75;;;;;;;12.44;100.00;99650.19;4848041;29;20625;-92
2023/05/11 04:00:07;;;;;;;0.05;0.05;;;;;;;12.37;100.00;99630.25;4843583;29;20033;-94
2023/05/11 04:02:40;;;;;;;0.60;0.60;;;;;;;12.53;100.00;99655.00;4846960;29;20049;-93
2023/05/11 04:05:10;;;;;;;0.20;0.20;;;;;;;12.48;100.00;99638.91;4855909;29;20052;-94
2023/05/11 04:07:37;;;;;;;1.10;1.02;;;;;;;12.58;100.00;99657.16;4852140;29;20045;-92
2023/05/11 04:10:04;;;;;;;0.20;0.20;;;;;;;12.56;100.00;99645.75;4870815;29;20072;-92
2023/05/11 04:12:30;;;;;;;1.20;0.68;;;;;;;12.60;100.00;99649.94;4853304;29;20041;-91
2023/05/11 04:14:56;;;;;;;0.00;0.00;;;;;;;12.63;100.00;99653.78;4859534;29;20053;-91
2023/05/11 04:17:22;;;;;;;0.82;0.82;;;;;;;12.46;100.00;99638.59;4852043;29;20033;-94
2023/05/11 04:19:48;;;;;;;0.40;0.40;;;;;;;12.51;100.00;99635.97;4856449;29;20041;-94
2023/05/11 04:22:13;;;;;;;0.40;0.40;;;;;;;12.52;100.00;99643.09;4855835;29;20045;-94
2023/05/11 04:24:39;;;;;;;0.25;0.25;;;;;;;12.65;100.00;99656.13;4858297;29;20093;-92
2023/05/11 04:27:04;;;;;;;0.75;0.70;;;;;;;12.55;99.13;99625.47;4841956;29;20135;-94
2023/05/11 04:29:30;;;;;;;0.68;0.68;;;;;;;12.64;99.45;99658.13;4859240;29;20044;-91
2023/05/11 04:31:56;;;;;;;0.22;0.22;;;;;;;12.75;99.93;99660.47;4843835;29;20041;-92
2023/05/11 04:34:23;;;;;;;0.47;0.40;;;;;;;12.65;99.01;99648.53;4878985;29;20102;-93
2023/05/11 04:36:49;;;;;;;23.90;0.93;;;;;;;12.77;98.80;99669.13;4824899;29;20044;-88
2023/05/11 04:39:17;;;;;;;0.10;0.10;;;;;;;12.52;97.95;99636.75;4842069;29;20041;-88
2023/05/11 04:41:43;;;;;;;0.77;0.57;;;;;;;12.59;99.10;99630.91;4871422;29;20132;-89
2023/05/11 04:44:12;;;;;;;0.30;0.30;;;;;;;12.34;99.28;99618.00;4857138;29;20051;-89
2023/05/11 04:46:37;;;;;;;0.30;0.28;;;;;;;12.65;98.18;99662.47;4838487;29;20045;-89
2023/05/11 04:49:04;;;;;;;1.02;0.40;;;;;;;12.45;98.63;99620.38;4842506;29;20096;-87
2023/05/11 04:51:30;;;;;;;0.50;0.50;;;;;;;12.62;98.86;99649.44;4842459;29;20044;-89
2023/05/11 04:53:57;;;;;;;1.10;1.00;;;;;;;12.80;100.00;99665.41;4832339;29;20663;-89
2023/05/11 04:56:23;;;;;;;0.00;0.00;;;;;;;12.77;98.67;99669.13;4858879;29;20056;-93
2023/05/11 04:58:49;;;;;;;0.70;0.70;;;;;;;12.77;98.20;99656.00;4845276;29;20146;-90
2023/05/11 05:01:15;;;;;;;0.47;0.47;;;;;;;12.84;97.82;99668.84;4844168;29;20045;-91
2023/05/11 05:03:40;;;;;;;0.38;0.38;;;;;;;12.78;97.72;99643.59;4831109;29;20544;-91
2023/05/11 05:06:06;;;;;;;0.50;0.40;;;;;;;12.85;96.91;99659.25;4841632;29;20450;-93
2023/05/11 05:08:31;;;;;;;0.20;0.20;;;;;;;12.92;97.33;99656.94;4828936;29;20126;-92
2023/05/11 05:10:58;;;;;;;0.82;0.70;;;;;;;12.97;97.63;99667.47;4860517;29;20060;-92
2023/05/11 05:13:24;;;;;;;0.05;0.05;;;;;;;12.95;97.91;99656.00;4843085;29;20044;-88
2023/05/11 05:15:50;;;;;;;0.57;0.57;;;;;;;13.08;95.20;99670.56;4827089;29;20053;-88
2023/05/11 05:18:16;;;;;;;0.15;0.13;;;;;;;12.98;94.68;99651.53;4828249;29;20040;-87
2023/05/11 05:20:43;;;;;;;0.63;0.63;;;;;;;13.04;95.35;99661.59;4828661;29;20045;-88
2023/05/11 05:23:09;;;;;;;0.57;0.32;;;;;;;13.17;95.20;99680.97;4857716;29;20112;-88
2023/05/11 05:25:34;;;;;;;0.15;0.15;;;;;;;13.06;95.51;99661.88;4847304;29;20085;-88
2023/05/11 05:28:00;;;;;;;0.50;0.50;;;;;;;13.09;95.09;99654.63;4844848;29;20042;-88
2023/05/11 05:30:26;;;;;;;0.47;0.47;;;;;;;12.99;95.24;99644.72;4856277;29;20033;-89
2023/05/11 05:32:53;;;;;;;0.32;0.32;;;;;;;13.01;94.00;99651.38;4840919;29;20411;-89
2023/05/11 05:35:19;;;;;;;1.02;0.80;;;;;;;13.30;94.76;99686.41;4869638;29;20131;-88
2023/05/11 05:37:45;;;;;;;2.55;0.43;;;;;;;13.25;95.71;99684.22;4857518;29;20507;-87
2023/05/11 05:40:11;;;;;;;2.50;1.25;;;;;;;13.12;95.77;99661.31;4866348;29;20537;-88
2023/05/11 05:42:42;;;;;;;0.45;0.45;;;;;;;13.12;94.20;99655.75;4870429;29;20124;-88
2023/05/11 05:45:11;;;;;;;0.52;0.50;;;;;;;13.24;94.36;99675.09;4874652;29;20079;-88
2023/05/11 05:47:38;;;;;;;1.40;0.65;;;;;;;13.10;94.16;99647.88;4866409;29;20029;-87
2023/05/11 05:50:08;;;;;;;0.10;0.10;;;;;;;13.23;93.60;99672.75;4865007;29;20056;-88
2023/05/11 05:52:33;;;;;;;0.45;0.45;;;;;;;13.18;92.77;99654.69;4845161;29;20175;-88
2023/05/11 05:55:00;;;;;;;0.82;0.77;;;;;;;13.07;92.59;99643.19;4867088;29;20088;-89
2023/05/11 05:57:25;;;;;;;0.47;0.47;;;;;;;13.18;93.02;99659.47;4868656;29;20077;-88
2023/05/11 05:59:51;;;;;;;0.80;0.70;;;;;;;13.48;93.17;99695.53;4859991;29;20033;-91
2023/05/11 06:02:18;;;;;;;0.30;0.30;;;;;;;13.37;92.07;99700.78;4872122;29;20400;-92
2023/05/11 06:04:43;;;;;;;0.38;0.30;;;;;;;13.22;93.21;99693.50;4875871;29;20067;-92
2023/05/11 06:07:10;;;;;;;0.20;0.20;;;;;;;13.28;95.14;99686.06;4875216;29;20049;-92
2023/05/11 06:09:35;;;;;;;0.55;0.40;;;;;;;13.41;93.77;99686.69;4857478;29;20059;-93
2023/05/11 06:12:02;;;;;;;0.20;0.20;;;;;;;13.43;93.53;99685.00;4863791;29;20046;-92
2023/05/11 06:14:30;;;;;;;0.00;0.00;;;;;;;13.49;90.88;99690.72;4851823;29;20582;-93
2023/05/11 06:16:56;;;;;;;0.47;0.22;;;;;;;13.63;91.76;99700.47;4877185;29;20067;-92
2023/05/11 06:19:21;;;;;;;0.90;0.77;;;;;;;13.52;92.40;99681.44;4860848;29;20049;-92
2023/05/11 06:21:47;;;;;;;0.35;0.35;;;;;;;13.49;90.34;99674.78;4876962;29;20041;-92
2023/05/11 06:24:14;;;;;;;0.28;0.28;;;;;;;13.62;91.77;99705.28;4860932;29;20164;-93
2023/05/11 06:26:41;;;;;;;0.15;0.15;;;;;;;13.65;91.92;99686.84;4872481;29;20072;-92
2023/05/11 06:29:08;;;;;;;0.10;0.10;;;;;;;13.73;91.08;99688.84;4856525;29;20037;-92
2023/05/11 06:31:34;;;;;;;1.85;0.98;;;;;;;13.84;89.43;99700.28;4856003;29;20037;-93
2023/05/11 06:33:59;;;;;;;0.55;0.55;;;;;;;13.84;90.12;99694.69;4859979;29;20097;-93
2023/05/11 06:36:27;;;;;;;1.08;0.82;;;;;;;13.91;89.59;99691.59;4847369;29;20139;-91
2023/05/11 06:38:53;;;;;;;0.90;0.63;;;;;;;14.07;89.74;99690.47;4865662;29;20783;-91
2023/05/11 06:41:20;;;;;;;0.00;0.00;;;;;;;14.14;88.54;99678.22;4865599;29;20049;-91
2023/05/11 06:43:45;;;;;;;0.85;0.68;;;;;;;14.28;86.17;99705.44;4861058;29;20043;-92
2023/05/11 06:46:26;;;;;;;0.35;0.32;;;;;;;14.08;85.59;99671.72;4855418;29;20041;-87
2023/05/11 06:48:52;;;;;;;0.30;0.30;;;;;;;14.39;83.89;99711.31;4875100;29;20045;-87
2023/05/11 06:51:19;;;;;;;1.33;1.17;;;;;;;14.35;84.66;99714.28;4890813;29;20040;-88
2023/05/11 06:53:45;;;;;;;0.75;0.75;;;;;;;14.41;84.38;99706.03;4874705;29;20047;-90
2023/05/11 06:56:11;;;;;;;0.20;0.20;;;;;;;14.49;85.27;99704.44;4866745;29;20041;-89
2023/05/11 06:58:36;;;;;;;0.57;0.57;;;;;;;14.37;84.15;99680.31;4864796;29;20045;-89
2023/05/11 07:01:04;;;;;;;0.45;0.45;;;;;;;14.67;84.12;99711.97;4875623;29;20052;-89
2023/05/11 07:03:30;;;;;;;0.32;0.32;;;;;;;14.75;83.59;99705.59;4874910;29;20068;-89
2023/05/11 07:05:55;;;;;;;0.52;0.30;;;;;;;14.81;81.33;99686.16;4859337;29;20558;-89
2023/05/11 07:08:21;;;;;;;0.30;0.25;;;;;;;14.77;82.37;99675.16;4834484;29;20101;-89
2023/05/11 07:10:46;;;;;;;0.17;0.17;;;;;;;14.99;80.79;99707.59;4867994;29;20479;-89
2023/05/11 07:13:13;;;;;;;1.20;0.70;;;;;;;15.11;78.41;99698.22;4874430;29;20049;-87
2023/05/11 07:15:40;;;;;;;0.10;0.10;;;;;;;15.04;77.91;99690.97;4859990;29;20076;-87
2023/05/11 07:18:05;;;;;;;1.10;1.02;;;;;;;14.97;77.53;99673.78;4852991;29;20542;-88
2023/05/11 07:20:31;;;;;;;0.20;0.20;;;;;;;15.06;78.37;99688.47;4849306;29;20052;-88
2023/05/11 07:22:58;;;;;;;0.20;0.20;;;;;;;15.10;77.53;99686.28;4870093;29;20445;-87
2023/05/11 07:25:24;;;;;;;0.52;0.52;;;;;;;15.21;76.17;99680.13;4844002;29;20052;-88
2023/05/11 07:27:50;;;;;;;4.40;1.55;;;;;;;15.35;75.99;99701.78;4851436;29;20048;-88
2023/05/11 07:30:15;;;;;;;0.85;0.43;;;;;;;15.29;75.81;99686.91;4839989;29;20409;-87
2023/05/11 07:32:41;;;;;;;0.65;0.65;;;;;;;15.45;75.54;99706.03;4867321;29;20131;-88
2023/05/11 07:35:07;;;;;;;0.60;0.55;;;;;;;15.45;74.86;99683.66;4871925;29;20047;-88
2023/05/11 07:37:32;;;;;;;0.30;0.30;;;;;;;15.46;75.73;99696.38;4868720;29;20403;-89
2023/05/11 07:39:58;;;;;;;0.57;0.57;;;;;;;15.23;74.37;99667.25;4874693;29;20106;-88
2023/05/11 07:42:23;;;;;;;0.52;0.52;;;;;;;15.19;73.51;99666.66;4876219;29;20225;-88
2023/05/11 07:44:49;;;;;;;0.52;0.45;;;;;;;15.32;73.59;99681.16;4875266;29;20068;-89
2023/05/11 07:47:16;;;;;;;0.65;0.65;;;;;;;15.53;74.82;99701.63;4874490;29;20045;-89
2023/05/11 07:49:41;;;;;;;0.20;0.20;;;;;;;15.32;74.57;99674.78;4874424;29;20053;-89
2023/05/11 07:52:07;;;;;;;0.25;0.25;;;;;;;15.37;77.02;99688.06;4874159;29;20044;-88
2023/05/11 07:54:32;;;;;;;1.13;0.50;;;;;;;15.53;77.77;99689.72;4875067;29;20492;-88
2023/05/11 07:56:58;;;;;;;1.35;0.88;;;;;;;15.66;74.79;99693.75;4869550;29;20064;-89
2023/05/11 07:59:24;;;;;;;0.32;0.32;;;;;;;15.58;75.37;99673.03;4871622;29;20049;-88
2023/05/11 08:01:49;;;;;;;0.57;0.57;;;;;;;15.76;73.65;99684.03;4874354;29;20097;-88
2023/05/11 08:04:15;;;;;;;0.32;0.30;;;;;;;15.82;73.86;99687.69;4858445;29;20067;-89
2023/05/11 08:06:40;;;;;;;0.55;0.55;;;;;;;15.96;74.68;99691.78;4841933;29;20053;-88
2023/05/11 08:09:06;;;;;;;0.00;0.00;;;;;;;16.02;71.50;99681.44;4857450;29;20060;-88
2023/05/11 08:11:31;;;;;;;0.43;0.43;;;;;;;16.02;70.65;99697.44;4881711;29;20077;-92
2023/05/11 08:13:57;;;;;;;1.02;1.02;;;;;;;15.83;70.75;99664.09;4838757;29;20045;-93
2023/05/11 08:16:22;;;;;;;1.13;1.02;;;;;;;16.04;71.19;99690.13;4853319;29;20511;-93
2023/05/11 08:18:48;;;;;;;0.17;0.17;;;;;;;16.05;75.26;99662.94;4863492;29;20484;-93
2023/05/11 08:21:14;;;;;;;0.68;0.68;;;;;;;16.21;72.61;99665.22;4863651;29;20057;-92
2023/05/11 08:23:39;;;;;;;0.45;0.45;;;;;;;16.45;67.94;99685.47;4879395;29;20041;-88
2023/05/11 08:26:05;;;;;;;0.50;0.47;;;;;;;16.27;71.87;99647.25;4890507;29;20071;-88
2023/05/11 08:28:30;;;;;;;0.30;0.30;;;;;;;16.66;70.46;99683.50;4881303;29;20055;-89
2023/05/11 08:30:57;;;;;;;1.35;1.15;;;;;;;16.53;71.07;99669.78;4872739;29;20585;-89
2023/05/11 08:33:22;;;;;;;0.20;0.20;;;;;;;16.77;70.79;99690.03;4881357;29;20516;-88
2023/05/11 08:35:48;;;;;;;1.40;0.40;;;;;;;16.58;69.32;99663.50;4869657;29;20037;-89
2023/05/11 08:38:14;;;;;;;1.00;0.73;;;;;;;16.74;70.26;99668.59;4864966;29;20045;-88
2023/05/11 08:40:46;;;;;;;1.05;0.98;;;;;;;16.76;69.11;99659.69;4865390;29;20059;-93
2023/05/11 08:43:13;;;;;;;2.28;1.55;;;;;;;16.72;67.20;99668.31;4864248;29;20438;-91
2023/05/11 08:45:40;;;;;;;0.55;0.55;;;;;;;16.74;71.80;99677.00;4862762;29;20056;-93
2023/05/11 08:48:05;;;;;;;0.38;0.38;;;;;;;16.72;69.78;99662.72;4877982;29;20476;-92
2023/05/11 08:50:32;;;;;;;0.60;0.60;;;;;;;16.90;69.46;99672.13;4879899;29;20033;-93
2023/05/11 08:52:57;;;;;;;0.35;0.35;;;;;;;16.91;68.65;99670.84;4863588;29;20045;-92
2023/05/11 08:55:26;;;;;;;2.08;0.63;;;;;;;16.95;68.57;99674.22;4875851;29;20148;-93
2023/05/11 08:57:52;;;;;;;0.20;0.20;;;;;;;16.85;68.46;99662.38;4879746;29;20147;-93
2023/05/11 09:00:19;;;;;;;0.65;0.35;;;;;;;16.85;69.66;99651.19;4860066;29;20618;-93
2023/05/11 09:02:45;;;;;;;0.30;0.30;;;;;;;16.91;69.31;99652.00;4874711;29;20514;-93
2023/05/11 09:05:11;;;;;;;0.38;0.38;;;;;;;17.01;69.98;99661.06;4859812;29;20057;-92
2023/05/11 09:07:39;;;;;;;0.57;0.57;;;;;;;17.13;71.11;99648.72;4861057;29;20141;-92
2023/05/11 09:10:05;;;;;;;0.82;0.68;;;;;;;17.50;70.74;99660.88;4874559;29;20132;-88
2023/05/11 09:12:31;;;;;;;1.15;0.95;;;;;;;17.71;68.83;99653.97;4855817;29;20415;-89
2023/05/11 09:14:57;;;;;;;0.17;0.17;;;;;;;17.88;65.97;99658.97;4828687;29;20046;-88
2023/05/11 09:17:25;;;;;;;0.43;0.38;;;;;;;17.87;63.46;99651.84;4857650;29;20511;-89
2023/05/11 09:20:04;;;;;;;2.40;1.00;;;;;;;18.06;64.34;99653.03;4845394;29;20162;-93
2023/05/11 09:22:39;;;;;;;0.65;0.38;;;;;;;18.00;64.16;99635.34;4845980;29;20407;-89
2023/05/11 09:25:05;;;;;;;1.17;0.65;;;;;;;18.12;61.56;99636.97;4859471;29;20128;-89
2023/05/11 09:27:31;;;;;;;1.05;0.95;;;;;;;18.27;62.29;99643.25;4861476;29;20116;-88
2023/05/11 09:30:12;;;;;;;1.58;0.70;;;;;;;18.37;61.55;99650.19;4840286;29;20072;-88
2023/05/11 09:32:47;;;;;;;1.33;0.95;;;;;;;18.17;60.87;99639.06;4822661;29;20465;-88
2023/05/11 09:35:23;;;;;;;0.20;0.20;;;;;;;18.34;62.14;99651.22;4854041;29;20056;-89
2023/05/11 09:38:03;;;;;;;0.43;0.43;;;;;;;18.17;61.93;99644.69;4873312;29;20514;-88
2023/05/11 09:40:35;;;;;;;0.60;0.60;;;;;;;18.05;62.41;99626.22;4855612;29;20046;-89
2023/05/11 09:43:28;;;;;;;0.45;0.45;;;;;;;17.96;60.31;99606.75;4857499;29;20634;-89
2023/05/11 09:46:03;;;;;;;0.75;0.75;;;;;;;18.00;62.09;99635.34;4852270;29;20053;-89
2023/05/11 09:48:30;;;;;;;0.55;0.55;;;;;;;17.99;63.53;99611.38;4844761;29;20050;-89
2023/05/11 09:51:02;;;;;;;0.63;0.63;;;;;;;18.19;62.45;99642.16;4841936;29;20433;-89
2023/05/11 09:53:41;;;;;;;3.65;1.27;;;;;;;17.75;62.24;99608.13;4841416;29;20053;-88
2023/05/11 09:56:07;;;;;;;0.43;0.38;;;;;;;17.96;62.98;99632.00;4846503;29;20064;-89
2023/05/11 09:58:51;;;;;;;1.33;1.20;;;;;;;17.91;63.84;99607.50;4856381;29;20084;-88
2023/05/11 10:01:17;;;;;;;;;;;;;;;18.14;62.42;99617.63;4842353;29;20066;-89
2023/05/11 10:03:52;;;;;;;1.17;0.75;;;;;;;17.89;63.43;99624.03;4873888;29;19931;-89
2023/05/11 10:06:18;;;;;;;1.05;0.98;;;;;;;17.94;63.97;99612.09;4857833;29;20077;-89
2023/05/11 10:08:45;;;;;;;1.30;1.10;;;;;;;17.98;64.21;99581.78;4841313;29;20096;-88
2023/05/11 10:11:11;;;;;;;0.40;0.40;;;;;;;18.13;64.96;99591.59;4874385;29;20087;-89
2023/05/11 10:13:38;;;;;;;9.13;1.65;;;;;;;18.28;64.80;99580.19;4850836;29;20077;-89
2023/05/11 10:16:05;;;;;;;0.30;0.30;;;;;;;18.55;64.35;99607.72;4841480;29;20045;-89
2023/05/11 10:18:31;;;;;;;0.43;0.43;;;;;;;18.53;62.11;99604.63;4859164;29;20045;-89
2023/05/11 10:20:57;;;;;;;1.45;0.65;;;;;;;18.35;62.63;99593.78;4857635;29;20138;-89
2023/05/11 10:23:24;;;;;;;0.77;0.77;;;;;;;18.39;62.60;99594.31;4829797;29;20038;-89
2023/05/11 10:25:51;;;;;;;0.90;0.40;;;;;;;18.37;63.71;99588.41;4852871;29;20057;-89
2023/05/11 10:28:17;;;;;;;0.20;0.20;;;;;;;18.53;63.14;99581.38;4875855;29;20064;-89
2023/05/11 10:30:43;;;;;;;0.93;0.57;;;;;;;18.44;61.10;99567.53;4861774;29;20053;-89
2023/05/11 10:33:09;;;;;;;1.05;0.95;;;;;;;18.44;59.80;99596.38;4860206;29;20047;-88
2023/05/11 10:35:37;;;;;;;1.10;0.95;;;;;;;18.31;61.15;99564.41;4837251;29;20049;-88
2023/05/11 10:38:02;;;;;;;0.20;0.20;;;;;;;18.27;61.79;99561.81;4861673;29;20055;-89
2023/05/11 10:40:28;;;;;;;1.92;0.90;;;;;;;18.42;59.99;99581.31;4832918;29;20500;-88
2023/05/11 10:43:27;;;;;;;0.85;0.40;;;;;;;18.50;60.21;99583.16;4873994;29;20045;-89
2023/05/11 10:46:07;;;;;;;1.45;0.65;;;;;;;18.42;59.90;99582.06;4847240;29;20491;-87
2023/05/11 10:49:02;;;;;;;1.08;0.73;;;;;;;18.42;61.30;99584.88;4860303;29;20507;-88
2023/05/11 10:51:49;;;;;;;0.47;0.47;;;;;;;18.44;60.53;99582.31;4852317;29;20575;-89
2023/05/11 10:54:34;;;;;;;0.32;0.30;;;;;;;18.41;60.42;99583.34;4879815;29;20057;-89
2023/05/11 10:57:10;;;;;;;1.38;1.23;;;;;;;18.19;59.21;99560.75;4874551;29;20045;-89
2023/05/11 11:00:29;;;;;;;0.40;0.38;;;;;;;18.14;60.14;99584.72;4842361;29;20515;-88
2023/05/11 11:02:56;;;;;;;0.32;0.32;;;;;;;17.92;60.27;99573.31;4818970;29;20049;-89
2023/05/11 11:05:33;;;;;;;0.52;0.52;;;;;;;17.80;59.56;99559.69;4855257;29;20116;-90
2023/05/11 11:08:02;;;;;;;0.20;0.20;;;;;;;17.73;60.09;99566.53;4839677;29;20637;-88
2023/05/11 11:10:36;;;;;;;0.52;0.43;;;;;;;17.67;61.76;99565.72;4853740;29;20496;-89
2023/05/11 11:13:03;;;;;;;0.52;0.52;;;;;;;17.64;63.41;99559.06;4855130;29;20056;-89
2023/05/11 11:15:54;;;;;;;1.23;1.08;;;;;;;17.85;64.75;99573.00;4840332;29;20034;-89
2023/05/11 11:18:23;;;;;;;0.60;0.60;;;;;;;17.93;62.17;99574.09;4870941;29;20061;-87
2023/05/11 11:20:54;;;;;;;0.60;0.50;;;;;;;17.91;62.23;99571.00;4854945;29;20268;-89
2023/05/11 11:23:38;;;;;;;0.52;0.52;;;;;;;17.97;63.82;99569.78;4840425;29;20122;-88
2023/05/11 11:26:03;;;;;;;0.95;0.68;;;;;;;18.01;64.10;99569.56;4870715;29;20065;-87
2023/05/11 11:28:59;;;;;;;0.28;0.28;;;;;;;18.07;63.36;99567.56;4855767;29;20037;-88
2023/05/11 11:31:32;;;;;;;0.50;0.38;;;;;;;18.06;65.38;99582.84;4849606;29;20061;-87
2023/05/11 11:34:27;;;;;;;0.25;0.15;;;;;;;17.81;60.85;99542.38;4859576;29;20050;-88
2023/05/11 11:37:00;;;;;;;0.98;0.68;;;;;;;18.03;59.52;99583.88;4871683;29;20419;-88
2023/05/11 11:39:43;;;;;;;;;;;;;;;18.00;60.30;99579.22;4856375;29;20057;-93
2023/05/11 11:42:33;;;;;;;0.65;0.52;;;;;;;17.73;60.69;99549.69;4841148;29;19963;-93
2023/05/11 11:45:25;;;;;;;0.70;0.65;;;;;;;17.85;62.31;99584.22;4839990;29;20508;-94
2023/05/11 11:48:12;;;;;;;0.13;0.13;;;;;;;17.82;61.55;99571.97;4840065;29;20144;-93
2023/05/11 11:50:42;;;;;;;0.50;0.50;;;;;;;17.78;62.65;99577.03;4818890;29;20462;-88
2023/05/11 11:53:10;;;;;;;4.50;1.95;;;;;;;17.57;64.72;99579.16;4849354;29;20045;-89
2023/05/11 11:55:50;;;;;;;0.88;0.68;;;;;;;17.70;66.84;99579.53;4843507;29;20534;-89
2023/05/11 11:58:45;;;;;;;0.30;0.30;;;;;;;17.83;65.80;99581.94;4839736;29;20049;-88
2023/05/11 12:01:15;;;;;;;2.20;1.35;;;;;;;17.78;63.59;99570.66;4846360;29;20159;-88
2023/05/11 12:03:43;;;;;;;0.70;0.70;;;;;;;17.77;64.05;99580.31;4856051;29;20081;-88
2023/05/11 12:06:09;;;;;;;0.25;0.25;;;;;;;17.77;64.63;99578.28;4844184;29;20049;-89
2023/05/11 12:08:36;;;;;;;3.28;1.27;;;;;;;17.68;62.41;99575.66;4843665;29;20140;-88
2023/05/11 12:11:02;;;;;;;1.73;1.63;;;;;;;17.61;64.16;99588.09;4862975;29;20057;-88
2023/05/11 12:13:28;;;;;;;0.65;0.65;;;;;;;17.52;63.54;99563.00;4859005;29;20063;-88
2023/05/11 12:16:14;;;;;;;1.20;0.93;;;;;;;17.63;67.16;99574.34;4841311;29;20499;-88
2023/05/11 12:18:51;;;;;;;1.77;1.30;;;;;;;17.51;65.69;99561.44;4849834;29;20491;-88
2023/05/11 12:21:21;;;;;;;0.85;0.75;;;;;;;17.48;65.85;99570.88;4844573;29;20465;-93
2023/05/11 12:23:56;;;;;;;0.95;0.93;;;;;;;17.48;66.76;99556.84;4854871;29;20053;-91
2023/05/11 12:26:23;;;;;;;1.35;1.15;;;;;;;17.55;65.27;99573.22;4841587;29;20548;-92
2023/05/11 12:28:49;;;;;;;0.73;0.73;;;;;;;17.38;65.39;99546.31;4822844;29;20048;-93
2023/05/11 12:31:18;;;;;;;0.57;0.52;;;;;;;17.42;66.09;99538.44;4853735;29;20049;-93
2023/05/11 12:33:50;;;;;;;8.60;1.40;;;;;;;17.59;65.26;99561.84;4835006;29;20045;-93
2023/05/11 12:36:23;;;;;;;0.45;0.45;;;;;;;17.70;66.53;99562.69;4858638;29;20057;-92
2023/05/11 12:38:49;;;;;;;0.55;0.55;;;;;;;17.54;64.52;99552.06;4871052;29;20045;-93
2023/05/11 12:41:22;;;;;;;0.35;0.25;;;;;;;17.57;64.62;99550.31;4859957;29;20152;-93
2023/05/11 12:43:53;;;;;;;1.03;0.93;;;;;;;17.57;65.57;99553.91;4859391;29;20049;-93